Rural Grove, New York
Current Conditions -  °F | °C
As of 8:35 PM on Tuesday 25 Nov 2014 (Local Time) from KNY0 Reporting Station
Clear Clear  
Wind Chill: 32°   Ceiling: Unl
Heat Index: 36°   Visibility: 10mi
Dew Point: 25°   Wind: 5mph
Humidity: 64%   Direction: 270°W
Pressure: 30.07"   Gusts: NA
Location:  42.8384°N, 74.4592°W
Report Text: KNY0 260135Z AUTO 27004KT 10SM CLR 02/M04 A3007 RMK AO2 T00211041
Loading
Personal Weather Stations






























Interactive Weather Map New forecast layout! Learn more

10-Day Weather Forecast

Advertisements
Track Severe Weather on mobile